Аэропорт: Рощино. Тюмень

ICAO: USTR

METAR:
2022-06-26 12:00:00
USTR 261200Z 32008MPS 9999 BKN018CB 13/08 Q1003 R21/CLRD65 R30/////99 TEMPO 30014MPS
METAR:
2022-06-26 10:57:00
TAF USTR 261057Z 2612/2712 29006G14MPS 6000 -SHRA FEW007 BKN016CB TEMPO 2612/2624 30014MPS 3100 -SHRA BKN005 BKN016CB BECMG 2705/2707 9999 NSW SCT020CB TEMPO 2707/2712 -SHRA